createdAt,value
2019-03-18T00:01:20.774Z,95289.28
2019-03-18T00:03:50.271Z,95289.45
2019-03-18T00:06:19.584Z,95294.97
2019-03-18T00:08:48.932Z,95288.52
2019-03-18T00:11:18.237Z,95286.80
2019-03-18T00:25:05.182Z,95302.82
2019-03-18T00:31:00.024Z,95313.97
2019-03-18T00:33:37.684Z,95308.59
2019-03-18T00:36:29.951Z,95309.67
2019-03-18T00:38:59.335Z,95308.58
2019-03-18T00:41:28.684Z,95315.34
2019-03-18T00:43:57.998Z,95306.23
2019-03-18T00:46:27.336Z,95313.81
2019-03-18T00:48:56.720Z,95306.94
2019-03-18T00:51:25.970Z,95318.37
2019-03-18T00:53:55.689Z,95321.16
2019-03-18T00:56:25.068Z,95318.27
2019-03-18T00:58:54.423Z,95329.41
2019-03-18T01:01:23.779Z,95336.65
2019-03-18T01:03:53.178Z,95342.94
2019-03-18T01:06:22.599Z,95348.31
2019-03-18T01:08:52.140Z,95351.84
2019-03-18T01:11:21.676Z,95360.86
2019-03-18T01:13:51.008Z,95348.30
2019-03-18T01:16:20.243Z,95343.27
2019-03-18T01:18:49.640Z,95345.93
2019-03-18T01:21:19.010Z,95344.22
2019-03-18T01:23:48.374Z,95333.69
2019-03-18T01:26:17.683Z,95346.55
2019-03-18T01:28:47.613Z,95345.81
2019-03-18T01:31:17.061Z,95344.37
2019-03-18T01:33:46.525Z,95350.75
2019-03-18T01:36:16.826Z,95341.52
2019-03-18T01:38:46.534Z,95339.23
2019-03-18T01:41:15.865Z,95335.04
2019-03-18T01:43:45.300Z,95331.53
2019-03-18T01:46:15.632Z,95336.09
2019-03-18T01:48:57.041Z,95346.75
2019-03-18T01:51:27.252Z,95335.84
2019-03-18T01:54:00.739Z,95340.03
2019-03-18T02:01:05.552Z,95330.73
2019-03-18T02:06:58.321Z,95324.19
2019-03-18T02:09:31.650Z,95323.77
2019-03-18T02:12:02.750Z,95328.47
2019-03-18T02:14:35.405Z,95327.14
2019-03-18T02:17:09.844Z,95322.09
2019-03-18T02:22:20.123Z,95326.23
2019-03-18T02:24:52.163Z,95330.03
2019-03-18T02:27:30.906Z,95329.94
2019-03-18T02:30:03.683Z,95325.83
2019-03-18T02:32:36.413Z,95313.91
2019-03-18T02:35:16.763Z,95314.20
2019-03-18T02:37:49.881Z,95331.41
2019-03-18T02:40:29.710Z,95332.83
2019-03-18T02:47:08.564Z,95342.74
2019-03-18T02:49:42.156Z,95335.30
2019-03-18T02:52:28.083Z,95345.84
2019-03-18T02:55:59.716Z,95344.91
2019-03-18T02:58:31.868Z,95352.30
2019-03-18T03:01:02.132Z,95360.48
2019-03-18T03:03:32.419Z,95362.90
2019-03-18T03:21:54.226Z,95363.16
2019-03-18T03:24:25.698Z,95357.27
2019-03-18T03:26:56.406Z,95360.68
2019-03-18T03:29:26.973Z,95355.50
2019-03-18T03:31:56.716Z,95339.06
2019-03-18T03:42:10.520Z,95334.69
2019-03-18T03:44:39.934Z,95332.38
2019-03-18T03:47:09.449Z,95332.95
2019-03-18T03:53:32.987Z,95343.27
2019-03-18T03:56:05.590Z,95353.77
2019-03-18T03:58:35.816Z,95354.03
2019-03-18T04:01:05.278Z,95349.44
2019-03-18T04:03:38.525Z,95345.23
2019-03-18T04:06:06.395Z,95339.54
2019-03-18T04:08:35.920Z,95346.19
2019-03-18T04:11:08.534Z,95332.66
2019-03-18T04:13:37.744Z,95342.98
2019-03-18T04:16:09.929Z,95346.70
2019-03-18T04:18:39.282Z,95351.94
2019-03-18T04:21:08.716Z,95349.82
2019-03-18T04:23:38.114Z,95341.66
2019-03-18T04:26:07.365Z,95337.48
2019-03-18T04:28:36.679Z,95340.81
2019-03-18T04:31:05.931Z,95349.88
2019-03-18T04:33:52.940Z,95340.31
2019-03-18T04:36:22.185Z,95344.73
2019-03-18T04:38:51.885Z,95347.56
2019-03-18T04:41:21.194Z,95352.00
2019-03-18T04:43:51.756Z,95352.29
2019-03-18T04:46:21.050Z,95354.22
2019-03-18T04:48:50.584Z,95349.63
2019-03-18T04:51:19.931Z,95353.59
2019-03-18T04:53:49.214Z,95354.48
2019-03-18T04:56:18.627Z,95357.66
2019-03-18T04:58:48.039Z,95363.86
2019-03-18T05:01:17.697Z,95372.59
2019-03-18T05:03:50.510Z,95383.08
2019-03-18T05:06:20.303Z,95379.15
2019-03-18T05:08:49.846Z,95376.13
2019-03-18T05:11:19.344Z,95378.69
2019-03-18T05:13:48.840Z,95376.50
2019-03-18T05:16:18.700Z,95379.46
2019-03-18T05:25:52.459Z,95373.08
2019-03-18T05:28:21.661Z,95359.86
2019-03-18T05:30:50.919Z,95352.72
2019-03-18T05:33:20.115Z,95338.50
2019-03-18T05:35:49.963Z,95341.06
2019-03-18T05:38:19.175Z,95352.81
2019-03-18T05:40:48.425Z,95361.81
2019-03-18T05:43:17.615Z,95369.00
2019-03-18T05:45:46.887Z,95363.19
2019-03-18T05:48:16.359Z,95363.47
2019-03-18T05:50:46.072Z,95366.25
2019-03-18T05:53:15.623Z,95362.50
2019-03-18T05:55:44.888Z,95357.17
2019-03-18T05:58:14.147Z,95371.65
2019-03-18T06:00:43.430Z,95377.81
2019-03-18T06:03:12.705Z,95381.55
2019-03-18T06:05:42.235Z,95390.09
2019-03-18T06:08:11.893Z,95402.94
2019-03-18T06:10:41.283Z,95407.44
2019-03-18T06:13:10.475Z,95401.19
2019-03-18T06:15:39.728Z,95396.55
2019-03-18T06:18:08.943Z,95396.72
2019-03-18T06:20:38.197Z,95398.84
2019-03-18T06:23:07.404Z,95405.94
2019-03-18T06:25:36.659Z,95407.67
2019-03-18T06:28:05.854Z,95420.30
2019-03-18T06:30:35.106Z,95416.55
2019-03-18T06:33:04.315Z,95413.70
2019-03-18T06:35:33.576Z,95415.91
2019-03-18T06:38:02.774Z,95420.10
2019-03-18T06:40:32.057Z,95414.41
2019-03-18T06:43:01.305Z,95416.98
2019-03-18T06:45:30.779Z,95412.97
2019-03-18T06:48:05.266Z,95422.81
2019-03-18T06:50:31.449Z,95428.47
2019-03-18T06:53:00.720Z,95437.22
2019-03-18T06:55:29.985Z,95443.27
2019-03-18T06:57:59.517Z,95439.92
2019-03-18T07:00:28.752Z,95448.36
2019-03-18T07:02:58.063Z,95444.00
2019-03-18T07:05:27.280Z,95447.12
2019-03-18T07:07:56.550Z,95444.55
2019-03-18T07:10:25.765Z,95448.31
2019-03-18T07:12:55.017Z,95449.25
2019-03-18T07:15:24.300Z,95452.91
2019-03-18T07:17:53.903Z,95457.33
2019-03-18T07:20:23.113Z,95459.25
2019-03-18T07:22:52.421Z,95464.70
2019-03-18T07:25:21.637Z,95470.12
2019-03-18T07:27:50.903Z,95466.44
2019-03-18T07:30:20.215Z,95474.34
2019-03-18T07:32:49.543Z,95460.13
2019-03-18T07:35:18.750Z,95470.34
2019-03-18T07:37:48.424Z,95478.03
2019-03-18T07:40:17.619Z,95479.45
2019-03-18T07:42:47.212Z,95473.44
2019-03-18T07:45:16.583Z,95468.30
2019-03-18T07:47:45.985Z,95478.70
2019-03-18T07:50:15.601Z,95467.52
2019-03-18T07:52:45.910Z,95473.34
2019-03-18T07:55:15.493Z,95469.33
2019-03-18T07:57:47.662Z,95461.98
2019-03-18T08:00:17.041Z,95468.88
2019-03-18T08:03:04.881Z,95470.09
2019-03-18T08:05:38.446Z,95484.55
2019-03-18T08:08:35.657Z,95483.34
2019-03-18T08:11:04.940Z,95498.34
2019-03-18T08:13:34.270Z,95489.34
2019-03-18T08:16:03.725Z,95501.71
2019-03-18T08:18:42.782Z,95509.91
2019-03-18T08:21:07.058Z,95506.25
2019-03-18T08:23:36.302Z,95504.27
2019-03-18T08:26:05.509Z,95509.37
2019-03-18T08:28:34.760Z,95509.56
2019-03-18T08:31:04.080Z,95522.50
2019-03-18T08:33:33.460Z,95524.23
2019-03-18T08:36:02.666Z,95521.22
2019-03-18T08:38:32.316Z,95517.87
2019-03-18T08:41:01.598Z,95532.20
2019-03-18T08:43:31.421Z,95535.32
2019-03-18T08:46:01.227Z,95537.17
2019-03-18T08:48:30.759Z,95534.69
2019-03-18T08:51:00.009Z,95534.94
2019-03-18T08:53:29.533Z,95536.91
2019-03-18T08:55:59.023Z,95537.35
2019-03-18T08:58:28.555Z,95542.59
2019-03-18T09:00:57.766Z,95540.72
2019-03-18T09:03:27.025Z,95543.84
2019-03-18T09:05:56.233Z,95546.41
2019-03-18T09:08:26.582Z,95539.17
2019-03-18T09:10:55.910Z,95541.69
2019-03-18T09:13:25.096Z,95551.41
2019-03-18T09:15:54.349Z,95543.55
2019-03-18T09:18:23.564Z,95542.88
2019-03-18T09:20:53.096Z,95539.89
2019-03-18T09:23:22.390Z,95540.27
2019-03-18T09:25:52.355Z,95546.80
2019-03-18T09:28:22.328Z,95562.28
2019-03-18T09:30:51.615Z,95567.50
2019-03-18T09:33:21.101Z,95566.80
2019-03-18T09:35:50.352Z,95573.52
2019-03-18T09:38:19.570Z,95568.92
2019-03-18T09:40:48.830Z,95570.27
2019-03-18T09:43:18.040Z,95576.03
2019-03-18T09:45:47.307Z,95577.66
2019-03-18T09:48:16.506Z,95568.11
2019-03-18T09:50:45.758Z,95573.29
2019-03-18T09:53:15.023Z,95571.77
2019-03-18T09:55:44.276Z,95569.06
2019-03-18T09:58:13.545Z,95565.11
2019-03-18T10:00:42.839Z,95563.36
2019-03-18T10:03:12.087Z,95568.22
2019-03-18T10:05:43.851Z,95576.49
2019-03-18T10:08:12.561Z,95574.42
2019-03-18T10:10:41.842Z,95576.84
2019-03-18T10:13:11.296Z,95564.78
2019-03-18T10:15:40.552Z,95568.09
2019-03-18T10:18:09.737Z,95571.03
2019-03-18T10:20:39.240Z,95573.70
2019-03-18T10:23:08.528Z,95577.58
2019-03-18T10:25:38.335Z,95582.77
2019-03-18T10:28:07.674Z,95583.47
2019-03-18T10:30:37.170Z,95588.00
2019-03-18T10:33:06.432Z,95577.25
2019-03-18T10:35:35.656Z,95577.85
2019-03-18T10:38:04.909Z,95585.69
2019-03-18T10:40:34.114Z,95585.87
2019-03-18T10:43:03.381Z,95588.97
2019-03-18T10:45:32.578Z,95584.38
2019-03-18T10:48:01.834Z,95580.69
2019-03-18T10:50:38.594Z,95590.86
2019-03-18T10:53:23.345Z,95584.18
2019-03-18T10:55:52.547Z,95563.05
2019-03-18T10:58:22.074Z,95600.77
2019-03-18T11:00:51.371Z,95616.55
2019-03-18T11:03:20.675Z,95625.49
2019-03-18T11:05:50.183Z,95613.70
2019-03-18T11:08:19.614Z,95636.33
2019-03-18T11:10:48.985Z,95642.86
2019-03-18T11:13:19.539Z,95644.04
2019-03-18T11:15:49.049Z,95640.84
2019-03-18T11:18:18.317Z,95649.67
2019-03-18T11:20:47.574Z,95645.05
2019-03-18T11:23:16.887Z,95647.93
2019-03-18T11:25:47.090Z,95654.06
2019-03-18T11:28:16.395Z,95648.02
2019-03-18T11:30:45.805Z,95648.66
2019-03-18T11:33:15.116Z,95646.84
2019-03-18T11:35:44.704Z,95643.41
2019-03-18T11:38:13.967Z,95635.98
2019-03-18T11:40:43.289Z,95639.41
2019-03-18T11:43:12.570Z,95633.48
2019-03-18T11:45:41.847Z,95641.50
2019-03-18T11:48:11.168Z,95628.80
2019-03-18T11:50:41.621Z,95628.33
2019-03-18T11:53:14.521Z,95616.09
2019-03-18T11:55:58.877Z,95612.77
2019-03-18T11:59:30.751Z,95620.04
2019-03-18T12:02:46.290Z,95618.85
2019-03-18T12:06:27.270Z,95621.52
2019-03-18T12:23:42.055Z,95630.75
2019-03-18T12:26:11.601Z,95622.93
2019-03-18T12:28:40.825Z,95617.33
2019-03-18T12:31:12.636Z,95619.37
2019-03-18T12:33:41.910Z,95625.84
2019-03-18T12:36:11.536Z,95618.83
2019-03-18T12:38:41.074Z,95626.41
2019-03-18T12:41:10.346Z,95618.75
2019-03-18T12:43:39.836Z,95616.41
2019-03-18T12:46:09.113Z,95617.70
2019-03-18T12:48:38.413Z,95617.30
2019-03-18T12:51:08.905Z,95611.81
2019-03-18T12:53:38.514Z,95610.63
2019-03-18T12:56:07.838Z,95607.87
2019-03-18T12:58:37.040Z,95610.17
2019-03-18T13:01:12.573Z,95615.84
2019-03-18T13:03:37.730Z,95607.97
2019-03-18T13:06:07.206Z,95609.42
2019-03-18T13:08:36.560Z,95601.48
2019-03-18T13:11:06.124Z,95602.39
2019-03-18T13:13:35.494Z,95605.91
2019-03-18T13:16:04.891Z,95617.19
2019-03-18T13:18:34.155Z,95620.12
2019-03-18T13:21:08.087Z,95618.20
2019-03-18T13:23:34.587Z,95612.41
2019-03-18T13:26:03.910Z,95614.71
2019-03-18T13:28:33.118Z,95616.93
2019-03-18T13:31:02.660Z,95619.23
2019-03-18T13:33:31.957Z,95614.70
2019-03-18T13:36:01.404Z,95607.80
2019-03-18T13:38:30.667Z,95606.66
2019-03-18T13:40:59.870Z,95611.70
2019-03-18T13:43:29.125Z,95603.22
2019-03-18T13:45:58.631Z,95600.64
2019-03-18T13:48:28.002Z,95611.09
2019-03-18T13:50:57.486Z,95610.98
2019-03-18T13:53:26.877Z,95613.92
2019-03-18T13:55:56.082Z,95615.41
2019-03-18T13:58:25.772Z,95621.23
2019-03-18T14:00:55.101Z,95619.77
2019-03-18T14:03:24.433Z,95615.61
2019-03-18T14:05:53.630Z,95624.11
2019-03-18T14:08:22.876Z,95619.94
2019-03-18T14:10:52.207Z,95618.32
2019-03-18T14:13:21.482Z,95612.61
2019-03-18T14:15:50.691Z,95618.11
2019-03-18T14:18:19.944Z,95619.64
2019-03-18T14:20:49.158Z,95613.72
2019-03-18T14:23:18.413Z,95621.92
2019-03-18T14:25:47.659Z,95615.77
2019-03-18T14:28:17.330Z,95622.27
2019-03-18T14:30:46.842Z,95625.27
2019-03-18T14:33:16.123Z,95628.70
2019-03-18T14:35:45.310Z,95626.37
2019-03-18T14:38:14.575Z,95628.20
2019-03-18T14:40:43.778Z,95640.39
2019-03-18T14:43:13.036Z,95638.83
2019-03-18T14:45:42.525Z,95632.00
2019-03-18T14:48:11.903Z,95632.74
2019-03-18T14:50:41.117Z,95632.53
2019-03-18T14:53:10.452Z,95635.39
2019-03-18T14:55:39.657Z,95635.25
2019-03-18T14:58:08.905Z,95635.65
2019-03-18T15:00:38.122Z,95629.42
2019-03-18T15:03:07.399Z,95629.73
2019-03-18T15:05:37.104Z,95622.13
2019-03-18T15:08:07.641Z,95617.48
2019-03-18T15:10:37.225Z,95622.78
2019-03-18T15:13:07.425Z,95624.78
2019-03-18T15:15:36.797Z,95617.80
2019-03-18T15:18:06.036Z,95635.45
2019-03-18T15:20:35.573Z,95628.08
2019-03-18T15:23:04.777Z,95633.91
2019-03-18T15:25:34.129Z,95632.55
2019-03-18T15:28:03.417Z,95639.02
2019-03-18T15:30:33.009Z,95641.03
2019-03-18T15:33:02.493Z,95646.39
2019-03-18T15:35:31.914Z,95652.69
2019-03-18T15:38:01.121Z,95651.42
2019-03-18T15:40:30.491Z,95663.77
2019-03-18T15:43:00.007Z,95675.95
2019-03-18T15:45:29.215Z,95680.77
2019-03-18T15:47:58.487Z,95685.69
2019-03-18T15:50:27.834Z,95701.38
2019-03-18T15:52:57.152Z,95700.13
2019-03-18T15:55:26.354Z,95702.71
2019-03-18T15:57:55.615Z,95709.17
2019-03-18T16:00:24.946Z,95706.73
2019-03-18T16:02:54.213Z,95709.47
2019-03-18T16:05:23.709Z,95709.43
2019-03-18T16:07:58.871Z,95718.80
2019-03-18T16:10:28.075Z,95712.92
2019-03-18T16:12:57.635Z,95713.72
2019-03-18T16:15:26.813Z,95719.64
2019-03-18T16:17:56.100Z,95710.35
2019-03-18T16:20:25.687Z,95703.42
2019-03-18T16:22:54.963Z,95702.89
2019-03-18T16:25:24.521Z,95720.20
2019-03-18T16:27:54.063Z,95720.13
2019-03-18T16:30:23.343Z,95726.39
2019-03-18T16:32:52.678Z,95733.19
2019-03-18T16:35:21.879Z,95744.27
2019-03-18T16:37:51.431Z,95753.29
2019-03-18T16:40:22.750Z,95754.52
2019-03-18T16:42:52.368Z,95746.97
2019-03-18T16:45:21.670Z,95754.24
2019-03-18T16:47:51.510Z,95760.50
2019-03-18T16:50:20.709Z,95758.56
2019-03-18T16:52:50.210Z,95763.17
2019-03-18T16:55:19.403Z,95758.72
2019-03-18T16:57:48.988Z,95760.89
2019-03-18T17:00:18.925Z,95763.47
2019-03-18T17:02:48.332Z,95764.50
2019-03-18T17:05:17.538Z,95761.63
2019-03-18T17:07:47.074Z,95762.42
2019-03-18T17:10:16.721Z,95765.44
2019-03-18T17:12:45.998Z,95767.81
2019-03-18T17:15:15.248Z,95773.44
2019-03-18T17:17:44.504Z,95778.25
2019-03-18T17:20:13.751Z,95783.85
2019-03-18T17:22:49.516Z,95782.86
2019-03-18T17:25:15.753Z,95790.34
2019-03-18T17:27:45.336Z,95789.18
2019-03-18T17:30:16.516Z,95776.89
2019-03-18T17:32:46.095Z,95782.58
2019-03-18T17:35:15.314Z,95782.50
2019-03-18T17:37:44.701Z,95790.03
2019-03-18T17:40:13.968Z,95805.07
2019-03-18T17:42:44.278Z,95806.03
2019-03-18T17:45:13.958Z,95805.42
2019-03-18T17:47:43.546Z,95813.02
2019-03-18T17:50:14.812Z,95808.70
2019-03-18T17:52:44.269Z,95810.23
2019-03-18T17:55:13.480Z,95812.80
2019-03-18T17:57:42.800Z,95820.13
2019-03-18T18:00:15.612Z,95816.20
2019-03-18T18:02:44.885Z,95827.52
2019-03-18T18:05:14.390Z,95822.34
2019-03-18T18:07:43.721Z,95830.47
2019-03-18T18:10:12.943Z,95829.28
2019-03-18T18:12:42.230Z,95830.80
2019-03-18T18:15:11.458Z,95833.06
2019-03-18T18:17:40.719Z,95836.45
2019-03-18T18:20:10.165Z,95839.28
2019-03-18T18:22:41.007Z,95846.59
2019-03-18T18:25:10.593Z,95834.80
2019-03-18T18:27:39.956Z,95833.30
2019-03-18T18:32:45.811Z,95833.38
2019-03-18T18:35:15.962Z,95841.14
2019-03-18T18:37:45.874Z,95845.00
2019-03-18T18:40:15.183Z,95850.90
2019-03-18T18:42:44.404Z,95855.59
2019-03-18T18:45:13.679Z,95861.66
2019-03-18T18:47:43.182Z,95852.94
2019-03-18T18:50:13.260Z,95851.38
2019-03-18T18:52:42.572Z,95857.50
2019-03-18T18:55:12.087Z,95859.09
2019-03-18T18:57:41.396Z,95865.43
2019-03-18T19:00:12.807Z,95866.41
2019-03-18T19:02:42.081Z,95871.49
2019-03-18T19:05:11.592Z,95873.22
2019-03-18T19:07:40.926Z,95862.77
2019-03-18T19:10:10.739Z,95868.09
2019-03-18T19:12:40.013Z,95877.63
2019-03-18T19:15:12.243Z,95875.86
2019-03-18T19:17:41.884Z,95883.22
2019-03-18T19:20:11.380Z,95886.31
2019-03-18T19:22:40.773Z,95888.45
2019-03-18T19:25:11.214Z,95892.22
2019-03-18T19:27:40.608Z,95895.23
2019-03-18T19:30:13.258Z,95907.03
2019-03-18T19:32:42.690Z,95906.19
2019-03-18T19:35:12.004Z,95907.70
2019-03-18T19:37:41.436Z,95913.09
2019-03-18T19:40:11.998Z,95919.61
2019-03-18T19:42:41.485Z,95920.73
2019-03-18T19:45:11.860Z,95923.36
2019-03-18T19:47:41.516Z,95928.12
2019-03-18T19:50:13.544Z,95924.22
2019-03-18T19:52:42.838Z,95932.83
2019-03-18T19:55:12.115Z,95931.03
2019-03-18T19:57:41.408Z,95937.98
2019-03-18T20:00:13.484Z,95945.36
2019-03-18T20:02:42.764Z,95942.11
2019-03-18T20:05:15.398Z,95954.25
2019-03-18T20:07:43.106Z,95961.84
2019-03-18T20:10:12.513Z,95963.71
2019-03-18T20:12:41.817Z,95963.03
2019-03-18T20:15:12.442Z,95961.45
2019-03-18T20:17:41.771Z,95963.66
2019-03-18T20:20:12.237Z,95964.13
2019-03-18T20:22:41.816Z,95966.18
2019-03-18T20:25:11.158Z,95964.92
2019-03-18T20:27:40.425Z,95969.52
2019-03-18T20:30:11.889Z,95970.94
2019-03-18T20:32:41.134Z,95968.55
2019-03-18T20:35:10.956Z,95965.34
2019-03-18T20:37:40.209Z,95970.83
2019-03-18T20:40:11.047Z,95968.09
2019-03-18T20:42:40.318Z,95961.02
2019-03-18T20:45:11.350Z,95970.41
2019-03-18T20:47:40.722Z,95969.29
2019-03-18T20:50:11.267Z,95976.23
2019-03-18T20:52:40.527Z,95979.00
2019-03-18T20:55:10.663Z,95979.80
2019-03-18T20:57:39.949Z,95977.37
2019-03-18T21:00:10.147Z,95983.09
2019-03-18T21:02:39.649Z,95989.03
2019-03-18T21:05:09.365Z,95988.63
2019-03-18T21:07:38.932Z,95987.75
2019-03-18T21:10:08.635Z,95988.88
2019-03-18T21:12:37.849Z,95986.50
2019-03-18T21:15:07.822Z,95993.32
2019-03-18T21:17:37.733Z,95994.20
2019-03-18T21:20:09.367Z,95996.57
2019-03-18T21:22:39.282Z,95993.24
2019-03-18T21:25:08.566Z,95999.19
2019-03-18T21:27:37.762Z,96002.44
2019-03-18T21:30:07.433Z,95989.15
2019-03-18T21:32:36.984Z,95998.78
2019-03-18T21:35:06.502Z,95997.00
2019-03-18T21:37:36.307Z,96002.48
2019-03-18T21:40:06.773Z,95999.76
2019-03-18T21:42:36.474Z,96000.05
2019-03-18T21:45:06.029Z,96000.03
2019-03-18T21:47:35.624Z,96001.03
2019-03-18T21:50:05.443Z,95992.75
2019-03-18T21:52:34.823Z,95997.52
2019-03-18T21:55:04.305Z,95993.14
2019-03-18T21:57:33.552Z,95995.91
2019-03-18T22:00:02.767Z,95997.42
2019-03-18T22:02:32.295Z,96000.83
2019-03-18T22:05:01.498Z,95996.90
2019-03-18T22:07:30.751Z,95997.19
2019-03-18T22:09:59.975Z,96000.59
2019-03-18T22:12:29.245Z,96009.12
2019-03-18T22:14:58.727Z,96007.70
2019-03-18T22:17:28.012Z,96004.63
2019-03-18T22:19:57.331Z,95999.49
2019-03-18T22:22:26.613Z,96003.95
2019-03-18T22:24:55.915Z,96006.45
2019-03-18T22:27:28.371Z,96015.70
2019-03-18T22:29:58.129Z,96012.73
2019-03-18T22:32:27.424Z,96021.83
2019-03-18T22:34:56.693Z,96014.80
2019-03-18T22:37:26.218Z,96011.31
2019-03-18T22:39:55.435Z,96008.48
2019-03-18T22:42:24.711Z,96006.56
2019-03-18T22:44:54.224Z,96004.12
2019-03-18T22:47:23.483Z,96007.37
2019-03-18T22:49:52.678Z,96011.15
2019-03-18T22:52:21.951Z,96008.66
2019-03-18T22:54:55.952Z,96014.36
2019-03-18T22:57:22.357Z,96016.61
2019-03-18T22:59:51.593Z,96019.86
2019-03-18T23:02:20.848Z,96022.55
2019-03-18T23:04:50.050Z,96015.97
2019-03-18T23:07:19.307Z,96018.65
2019-03-18T23:09:48.534Z,96009.20
2019-03-18T23:12:17.724Z,96018.41
2019-03-18T23:14:46.996Z,96012.53
2019-03-18T23:17:16.261Z,96014.34
2019-03-18T23:19:45.499Z,96020.69
2019-03-18T23:22:14.718Z,96022.42
2019-03-18T23:27:18.732Z,96023.03
2019-03-18T23:29:48.419Z,96021.91
2019-03-18T23:32:17.619Z,96026.97
2019-03-18T23:34:47.224Z,96027.45
2019-03-18T23:37:16.446Z,96036.31
2019-03-18T23:39:45.765Z,96035.39
2019-03-18T23:42:14.992Z,96023.91
2019-03-18T23:44:44.451Z,96026.31
2019-03-18T23:47:13.648Z,96025.73
2019-03-18T23:49:42.906Z,96032.20
2019-03-18T23:52:12.242Z,96031.89
2019-03-18T23:54:41.769Z,96030.55
2019-03-18T23:57:11.317Z,96028.13
2019-03-18T23:59:43.133Z,96031.66
